Time;durP1;ratioP1;P1;durP2;ratioP2;P2;SDS_P1;SDS_P2;PMS_P1;PMS_P2;Temp;Humidity;BMP_temperature;BMP_pressure;BME280_temperature;BME280_humidity;BME280_pressure;Samples;Min_cycle;Max_cycle;Signal;HPM_P1;HPM_P2
2022/11/10 00:01:53;;;;;;;9.57;2.37;;;;;;;9.62;100.00;101699.09;5075033;28;20461;-34
2022/11/10 00:04:19;;;;;;;11.77;2.80;;;;;;;9.60;100.00;101698.44;5073388;28;20028;-34
2022/11/10 00:06:47;;;;;;;10.97;3.00;;;;;;;9.57;100.00;101696.16;5075085;28;20534;-34
2022/11/10 00:09:13;;;;;;;11.23;2.78;;;;;;;9.51;100.00;101693.22;5074645;28;20029;-34
2022/11/10 00:11:39;;;;;;;;;;;;;;;9.60;100.00;101707.38;5075518;28;20035;-34
2022/11/10 00:17:03;;;;;;;10.52;2.58;;;;;;;9.37;100.00;101686.13;5074729;28;20514;-33
2022/11/10 00:19:29;;;;;;;10.70;2.17;;;;;;;9.37;100.00;101680.75;5074699;28;20103;-33
2022/11/10 00:21:54;;;;;;;6.47;1.95;;;;;;;9.44;100.00;101692.38;5073520;28;20052;-33
2022/11/10 00:24:20;;;;;;;12.25;2.40;;;;;;;9.38;100.00;101687.78;5075332;28;20054;-33
2022/11/10 00:26:45;;;;;;;9.40;2.58;;;;;;;9.43;100.00;101704.22;5074102;28;20029;-33
2022/11/10 00:29:11;;;;;;;10.93;2.47;;;;;;;9.42;100.00;101707.97;5074505;28;20108;-33
2022/11/10 00:31:37;;;;;;;12.07;2.70;;;;;;;9.42;100.00;101724.16;5074343;28;20066;-33
2022/11/10 00:34:03;;;;;;;14.50;3.55;;;;;;;9.40;100.00;101712.72;5074631;28;20025;-34
2022/11/10 00:36:28;;;;;;;9.88;2.28;;;;;;;9.28;100.00;101709.78;5074239;28;20033;-34
2022/11/10 00:38:53;;;;;;;10.30;2.55;;;;;;;9.37;100.00;101723.94;5074360;28;20025;-34
2022/11/10 00:41:19;;;;;;;11.63;2.33;;;;;;;9.33;100.00;101730.75;5074538;28;20052;-34
2022/11/10 00:43:45;;;;;;;8.52;2.40;;;;;;;9.35;100.00;101725.16;5074465;28;20068;-34
2022/11/10 00:46:11;;;;;;;10.55;2.35;;;;;;;9.29;100.00;101721.41;5074575;28;20115;-34
2022/11/10 00:48:36;;;;;;;11.20;2.67;;;;;;;9.25;100.00;101736.31;5074156;28;20028;-34
2022/11/10 00:51:01;;;;;;;10.30;3.00;;;;;;;9.27;100.00;101731.53;5073258;28;20165;-34
2022/11/10 00:53:27;;;;;;;9.07;2.13;;;;;;;9.31;100.00;101742.78;5074505;28;20034;-34
2022/11/10 00:55:52;;;;;;;9.70;2.20;;;;;;;9.31;100.00;101738.22;5073929;28;20029;-34
2022/11/10 00:58:17;;;;;;;10.63;2.63;;;;;;;9.26;100.00;101727.19;5074151;28;20075;-33
2022/11/10 01:00:43;;;;;;;13.63;2.70;;;;;;;9.26;100.00;101736.09;5074324;28;20039;-33
2022/11/10 01:03:15;;;;;;;14.07;2.50;;;;;;;9.16;100.00;101726.72;5073604;28;20066;-33
2022/11/10 01:05:41;;;;;;;12.82;2.95;;;;;;;9.19;100.00;101739.81;5073842;28;20427;-33
2022/11/10 01:08:07;;;;;;;11.88;2.78;;;;;;;9.21;100.00;101743.97;5073934;28;20463;-33
2022/11/10 01:10:33;;;;;;;10.82;2.60;;;;;;;9.21;100.00;101741.28;5073693;28;20060;-33
2022/11/10 01:12:59;;;;;;;12.45;3.17;;;;;;;9.15;100.00;101735.84;5074206;28;20480;-33
2022/11/10 01:15:24;;;;;;;13.05;3.20;;;;;;;9.18;100.00;101743.56;5072565;28;20024;-33
2022/11/10 01:17:51;;;;;;;12.90;2.30;;;;;;;9.16;100.00;101745.59;5073576;28;20126;-33
2022/11/10 01:20:16;;;;;;;6.55;2.53;;;;;;;9.15;100.00;101752.88;5073757;28;20060;-33
2022/11/10 01:22:42;;;;;;;9.70;3.07;;;;;;;9.10;100.00;101754.50;5073496;28;20067;-33
2022/11/10 01:25:08;;;;;;;13.55;3.03;;;;;;;9.07;100.00;101754.91;5073401;28;20369;-33
2022/11/10 01:27:34;;;;;;;7.35;2.63;;;;;;;9.09;100.00;101766.34;5073662;28;20025;-33
2022/11/10 01:29:59;;;;;;;14.20;2.58;;;;;;;9.11;100.00;101777.75;5073828;28;20032;-33
2022/11/10 01:32:25;;;;;;;9.70;2.33;;;;;;;9.10;100.00;101776.94;5073394;28;20035;-33
2022/11/10 01:34:50;;;;;;;13.60;2.87;;;;;;;9.08;100.00;101781.69;5073426;28;20470;-34
2022/11/10 01:37:15;;;;;;;11.70;2.60;;;;;;;9.10;100.00;101789.59;5073615;28;20029;-34
2022/11/10 01:39:40;;;;;;;12.90;2.60;;;;;;;9.08;100.00;101784.41;5073166;28;20036;-34
2022/11/10 01:42:06;;;;;;;7.00;2.40;;;;;;;9.09;100.00;101785.22;5073970;28;20017;-34
2022/11/10 01:44:34;;;;;;;15.73;3.22;;;;;;;9.02;100.00;101772.50;5073323;28;20445;-34
2022/11/10 01:46:59;;;;;;;10.68;2.72;;;;;;;9.01;100.00;101773.53;5072780;28;20489;-33
2022/11/10 01:49:27;;;;;;;13.40;2.63;;;;;;;9.07;100.00;101781.88;5073034;28;20127;-33
2022/11/10 01:52:18;;;;;;;12.88;3.03;;;;;;;9.05;100.00;101770.47;5072646;28;20048;-33
2022/11/10 01:54:47;;;;;;;10.55;2.30;;;;;;;9.07;100.00;101781.88;5070404;28;20036;-33
2022/11/10 01:57:14;;;;;;;12.75;2.88;;;;;;;9.05;100.00;101776.69;5072880;28;20462;-33
2022/11/10 01:59:47;;;;;;;14.48;2.60;;;;;;;9.01;100.00;101776.25;5072652;28;20033;-33
2022/11/10 02:02:26;;;;;;;8.40;2.95;;;;;;;9.00;100.00;101771.88;5073581;28;20039;-33
2022/11/10 02:04:51;;;;;;;17.05;2.58;;;;;;;9.03;100.00;101776.91;5072709;28;20020;-33
2022/11/10 02:07:18;;;;;;;9.45;2.60;;;;;;;8.97;100.00;101783.06;5072808;28;20532;-33
2022/11/10 02:09:43;;;;;;;15.05;2.85;;;;;;;9.02;100.00;101775.19;5072260;28;20475;-33
2022/11/10 02:12:09;;;;;;;11.63;2.53;;;;;;;9.00;100.00;101784.53;5072383;28;20039;-33
2022/11/10 02:14:35;;;;;;;11.75;2.60;;;;;;;9.02;100.00;101780.59;5073007;28;20035;-34
2022/11/10 02:17:01;;;;;;;11.82;2.88;;;;;;;8.94;100.00;101786.16;5072744;28;20028;-33
2022/11/10 02:19:26;;;;;;;10.37;3.07;;;;;;;8.93;100.00;101786.34;5073222;28;20029;-33
2022/11/10 02:21:52;;;;;;;13.35;2.55;;;;;;;8.98;100.00;101795.53;5072684;28;20426;-33
2022/11/10 02:24:17;;;;;;;12.23;2.43;;;;;;;8.86;100.00;101790.88;5073197;28;20060;-33
2022/11/10 02:26:51;;;;;;;10.70;2.43;;;;;;;8.97;100.00;101812.72;5072611;28;20074;-33
2022/11/10 02:29:16;;;;;;;10.23;2.30;;;;;;;8.88;100.00;101795.06;5072651;28;20037;-34
2022/11/10 02:31:42;;;;;;;8.47;2.37;;;;;;;8.97;100.00;101818.13;5072630;28;20036;-34
2022/11/10 02:34:07;;;;;;;11.70;2.70;;;;;;;8.95;100.00;101820.19;5072647;28;20370;-33
2022/11/10 02:36:32;;;;;;;9.97;2.83;;;;;;;8.94;100.00;101832.03;5072314;28;20048;-33
2022/11/10 02:38:58;;;;;;;11.30;2.33;;;;;;;8.88;100.00;101822.03;5072858;28;20073;-33
2022/11/10 02:41:23;;;;;;;9.33;2.77;;;;;;;8.98;100.00;101837.88;5072274;28;20037;-33
2022/11/10 02:43:49;;;;;;;15.00;3.47;;;;;;;8.97;100.00;101847.81;5071261;28;20120;-33
2022/11/10 02:46:15;;;;;;;12.52;2.70;;;;;;;8.98;100.00;101841.41;5072981;28;20040;-33
2022/11/10 02:48:40;;;;;;;12.23;2.97;;;;;;;8.94;100.00;101834.72;5072999;28;20025;-33
2022/11/10 02:51:05;;;;;;;9.67;2.70;;;;;;;8.95;100.00;101843.66;5072731;28;20052;-33
2022/11/10 02:53:30;;;;;;;12.50;3.07;;;;;;;8.94;100.00;101848.22;5072982;28;20076;-34
2022/11/10 02:55:56;;;;;;;9.20;2.47;;;;;;;8.95;100.00;101836.38;5071060;28;20456;-33
2022/11/10 02:58:21;;;;;;;15.27;3.73;;;;;;;8.86;100.00;101824.06;5072120;28;20036;-33
2022/11/10 03:00:46;;;;;;;11.23;2.70;;;;;;;8.93;100.00;101843.84;5072407;28;20031;-33
2022/11/10 03:03:12;;;;;;;7.60;2.30;;;;;;;8.91;100.00;101847.78;5072363;28;20104;-33
2022/11/10 03:05:37;;;;;;;8.63;2.63;;;;;;;8.84;100.00;101838.81;5072004;28;20027;-33
2022/11/10 03:08:03;;;;;;;12.70;3.37;;;;;;;8.73;100.00;101823.97;5072423;28;20024;-33
2022/11/10 03:10:30;;;;;;;6.60;2.22;;;;;;;8.85;100.00;101851.25;5070960;28;20477;-33
2022/11/10 03:12:57;;;;;;;10.50;2.45;;;;;;;8.79;100.00;101838.56;5072496;28;20079;-33
2022/11/10 03:15:23;;;;;;;10.77;2.50;;;;;;;8.84;100.00;101863.06;5072088;28;20074;-33
2022/11/10 03:17:48;;;;;;;;;;;;;;;8.89;100.00;101858.75;5072913;28;20025;-33
2022/11/10 03:20:14;;;;;;;10.13;2.95;;;;;;;8.82;100.00;101868.66;5072168;28;19916;-33
2022/11/10 03:22:40;;;;;;;12.20;3.47;;;;;;;8.83;100.00;101866.78;5073277;28;20033;-33
2022/11/10 03:25:06;;;;;;;11.88;2.20;;;;;;;8.72;100.00;101858.19;5075716;28;20040;-33
2022/11/10 03:27:31;;;;;;;12.25;2.50;;;;;;;8.79;100.00;101877.13;5075876;28;20078;-33
2022/11/10 03:29:57;;;;;;;11.90;2.80;;;;;;;8.79;100.00;101874.44;5075692;28;20024;-33
2022/11/10 03:32:22;;;;;;;16.23;2.90;;;;;;;8.76;100.00;101881.03;5076359;28;20262;-34
2022/11/10 03:34:47;;;;;;;12.43;2.47;;;;;;;8.77;100.00;101889.97;5075513;28;20037;-34
2022/11/10 03:37:12;;;;;;;17.20;2.60;;;;;;;8.75;100.00;101883.94;5076048;28;20063;-33
2022/11/10 03:39:38;;;;;;;12.27;3.33;;;;;;;8.75;100.00;101892.88;5075428;28;20158;-33
2022/11/10 03:42:04;;;;;;;8.57;2.30;;;;;;;8.77;100.00;101906.16;5075429;28;20108;-33
2022/11/10 03:44:29;;;;;;;10.93;3.58;;;;;;;8.66;100.00;101895.88;5075440;28;20503;-33
2022/11/10 03:46:55;;;;;;;9.95;2.85;;;;;;;8.70;100.00;101903.41;5075355;28;20484;-33
2022/11/10 03:49:20;;;;;;;12.40;2.47;;;;;;;8.55;100.00;101888.31;5075203;28;20037;-34
2022/11/10 03:51:45;;;;;;;11.13;2.43;;;;;;;8.64;100.00;101919.53;5075146;28;20035;-33
2022/11/10 03:54:11;;;;;;;10.93;2.40;;;;;;;8.65;100.00;101918.50;5075296;28;20032;-33
2022/11/10 03:56:36;;;;;;;8.80;2.60;;;;;;;8.47;100.00;101906.28;5075061;28;20032;-33
2022/11/10 03:59:01;;;;;;;12.83;2.93;;;;;;;8.60;100.00;101921.75;5074802;28;20031;-33
2022/11/10 04:01:26;;;;;;;10.33;2.57;;;;;;;8.59;100.00;101919.25;5074881;28;20078;-33
2022/11/10 04:03:52;;;;;;;12.60;2.77;;;;;;;8.57;100.00;101921.31;5075850;28;20259;-33
2022/11/10 04:09:03;;;;;;;13.18;3.22;;;;;;;8.48;100.00;101907.09;5074779;28;20044;-33
2022/11/10 04:16:57;;;;;;;12.35;3.38;;;;;;;8.45;100.00;101919.13;5074739;28;20117;-33
2022/11/10 04:19:23;;;;;;;10.63;2.33;;;;;;;8.55;100.00;101939.53;5075332;28;20467;-33
2022/11/10 04:21:48;;;;;;;9.55;2.40;;;;;;;8.55;100.00;101940.38;5074686;28;20028;-33
2022/11/10 04:24:14;;;;;;;9.27;2.47;;;;;;;8.54;100.00;101943.25;5074836;28;20028;-33
2022/11/10 04:26:41;;;;;;;16.40;3.33;;;;;;;8.51;100.00;101945.31;5074475;28;20094;-33
2022/11/10 04:29:08;;;;;;;13.20;3.33;;;;;;;8.50;100.00;101957.13;5074760;28;20029;-33
2022/11/10 04:31:36;;;;;;;12.77;2.70;;;;;;;8.51;100.00;101968.75;5074408;28;20020;-33
2022/11/10 04:34:06;;;;;;;12.20;3.30;;;;;;;8.50;100.00;101969.78;5074176;28;20052;-33
2022/11/10 04:36:33;;;;;;;12.38;2.95;;;;;;;8.49;100.00;101978.84;5074363;28;20035;-33
2022/11/10 04:38:59;;;;;;;8.73;2.28;;;;;;;8.47;100.00;101989.00;5074635;28;20429;-33
2022/11/10 04:41:25;;;;;;;13.30;2.88;;;;;;;8.48;100.00;101983.41;5074846;28;20111;-33
2022/11/10 04:43:51;;;;;;;13.35;2.70;;;;;;;8.47;100.00;101997.09;5074213;28;20029;-33
2022/11/10 04:46:20;;;;;;;14.25;3.13;;;;;;;8.47;100.00;101992.53;5074319;28;20456;-33
2022/11/10 04:48:45;;;;;;;14.88;2.92;;;;;;;8.46;100.00;102001.66;5074090;28;20097;-33
2022/11/10 04:51:11;;;;;;;7.37;2.70;;;;;;;8.47;100.00;102006.00;5072293;28;20048;-33
2022/11/10 04:53:36;;;;;;;11.00;2.92;;;;;;;8.44;100.00;102008.25;5074004;28;20718;-33
2022/11/10 04:56:02;;;;;;;11.30;2.87;;;;;;;8.46;100.00;102015.13;5073700;28;20050;-33
2022/11/10 04:58:27;;;;;;;12.23;2.85;;;;;;;8.46;100.00;102017.00;5074635;28;20048;-33
2022/11/10 05:00:52;;;;;;;14.57;2.83;;;;;;;8.45;100.00;102016.16;5074075;28;20024;-33
2022/11/10 05:03:18;;;;;;;12.17;3.00;;;;;;;8.41;100.00;102006.78;5074046;28;20431;-33
2022/11/10 05:05:43;;;;;;;16.70;3.63;;;;;;;8.41;100.00;102017.56;5074105;28;20491;-33
2022/11/10 05:08:09;;;;;;;9.47;2.43;;;;;;;8.44;100.00;102014.50;5073707;28;20071;-33
2022/11/10 05:10:36;;;;;;;11.63;2.90;;;;;;;8.42;100.00;102007.59;5073411;28;20036;-33
2022/11/10 05:13:03;;;;;;;13.35;3.35;;;;;;;8.41;100.00;102017.56;5073890;28;20029;-33
2022/11/10 05:15:30;;;;;;;12.48;3.20;;;;;;;8.47;100.00;102021.34;5073249;28;20037;-33
2022/11/10 05:17:55;;;;;;;8.68;2.08;;;;;;;8.46;100.00;102025.91;5074062;28;20078;-33
2022/11/10 05:20:23;;;;;;;14.98;3.05;;;;;;;8.46;100.00;102019.69;5074161;28;20028;-33
2022/11/10 05:25:38;;;;;;;12.52;3.00;;;;;;;8.40;100.00;102013.19;5074163;28;20431;-33
2022/11/10 05:28:04;;;;;;;10.80;2.97;;;;;;;8.40;100.00;102023.97;5073617;28;20028;-33
2022/11/10 05:30:30;;;;;;;15.52;3.53;;;;;;;8.38;100.00;102015.22;5073297;28;20054;-33
2022/11/10 05:32:55;;;;;;;9.02;2.60;;;;;;;8.40;100.00;102025.84;5074079;28;20029;-33
2022/11/10 05:35:21;;;;;;;11.73;3.07;;;;;;;8.29;100.00;102020.88;5072998;28;20016;-33
2022/11/10 05:37:46;;;;;;;13.50;4.25;;;;;;;8.34;100.00;102021.97;5073290;28;20059;-33
2022/11/10 05:40:12;;;;;;;14.73;3.37;;;;;;;8.25;100.00;102017.75;5072152;28;20032;-33
2022/11/10 05:42:48;;;;;;;13.13;3.22;;;;;;;8.25;100.00;102018.56;5073439;28;20350;-33
2022/11/10 05:45:14;;;;;;;10.68;3.42;;;;;;;8.34;100.00;102040.00;5072032;28;20498;-33
2022/11/10 05:47:40;;;;;;;;;;;;;;;8.36;100.00;102044.25;5073391;28;20039;-33
2022/11/10 05:50:07;;;;;;;17.60;3.60;;;;;;;8.30;100.00;102047.66;5073066;28;19916;-33
2022/11/10 05:52:33;;;;;;;13.77;3.08;;;;;;;8.28;100.00;102049.69;5072932;28;20394;-33
2022/11/10 05:54:58;;;;;;;12.85;3.78;;;;;;;8.26;100.00;102044.50;5072966;28;20029;-34
2022/11/10 05:57:24;;;;;;;16.60;3.67;;;;;;;8.18;100.00;102036.50;5073472;28;20058;-33
2022/11/10 05:59:49;;;;;;;11.17;3.07;;;;;;;8.27;100.00;102050.72;5072694;28;20344;-33
2022/11/10 06:02:15;;;;;;;9.60;2.65;;;;;;;8.15;100.00;102042.28;5073176;28;20115;-33
2022/11/10 06:04:41;;;;;;;12.60;2.83;;;;;;;8.24;100.00;102056.47;5072871;28;20020;-33
2022/11/10 06:07:10;;;;;;;11.50;3.00;;;;;;;8.21;100.00;102068.47;5072556;28;20028;-33
2022/11/10 06:09:36;;;;;;;13.63;2.85;;;;;;;8.21;100.00;102062.25;5072737;28;20029;-33
2022/11/10 06:12:02;;;;;;;;;;;;;;;8.26;100.00;102066.03;5073224;28;20078;-33
2022/11/10 06:14:27;;;;;;;13.05;2.60;;;;;;;8.13;100.00;102051.53;5073307;28;19908;-34
2022/11/10 06:16:52;;;;;;;12.53;3.20;;;;;;;8.25;100.00;102063.56;5072855;28;20168;-33
2022/11/10 06:19:18;;;;;;;12.47;3.40;;;;;;;8.24;100.00;102072.63;5073018;28;20199;-33
2022/11/10 06:21:43;;;;;;;10.63;3.13;;;;;;;8.25;100.00;102080.56;5072491;28;20541;-33
2022/11/10 06:24:10;;;;;;;11.23;2.77;;;;;;;8.21;100.00;102073.03;5072915;28;20050;-33
2022/11/10 06:26:35;;;;;;;13.07;3.03;;;;;;;8.18;100.00;102068.81;5072548;28;20170;-33
2022/11/10 06:29:01;;;;;;;15.50;3.92;;;;;;;8.14;100.00;102072.06;5072892;28;20115;-33
2022/11/10 06:31:27;;;;;;;12.65;3.67;;;;;;;8.14;100.00;102082.84;5072315;28;20163;-34
2022/11/10 06:33:52;;;;;;;13.00;3.25;;;;;;;8.14;100.00;102088.25;5072681;28;20021;-33
2022/11/10 06:36:17;;;;;;;11.87;2.90;;;;;;;8.12;100.00;102090.28;5072340;28;20029;-33
2022/11/10 06:38:43;;;;;;;13.80;3.17;;;;;;;8.10;100.00;102087.78;5072941;28;20024;-33
2022/11/10 06:41:08;;;;;;;13.00;2.80;;;;;;;8.13;100.00;102097.34;5072475;28;20492;-33
2022/11/10 06:43:33;;;;;;;13.93;3.43;;;;;;;8.04;100.00;102093.91;5073065;28;20254;-33
2022/11/10 06:45:59;;;;;;;11.97;2.87;;;;;;;8.06;100.00;102107.19;5072540;28;20065;-33
2022/11/10 06:48:24;;;;;;;15.03;2.97;;;;;;;8.14;100.00;102126.78;5072306;28;20325;-33
2022/11/10 06:50:49;;;;;;;12.30;3.00;;;;;;;8.05;100.00;102121.66;5072849;28;20041;-33
2022/11/10 06:53:16;;;;;;;15.07;3.37;;;;;;;8.13;100.00;102124.28;5072871;28;20037;-34
2022/11/10 06:55:41;;;;;;;13.93;3.17;;;;;;;8.12;100.00;102136.09;5072424;28;20060;-34
2022/11/10 06:58:08;;;;;;;11.80;2.80;;;;;;;8.11;100.00;102140.66;5076342;28;20451;-33
2022/11/10 07:00:33;;;;;;;13.70;3.20;;;;;;;8.02;100.00;102125.56;5076428;28;20060;-33
2022/11/10 07:03:05;;;;;;;11.47;3.00;;;;;;;8.11;100.00;102142.50;5076846;28;20083;-33
2022/11/10 07:05:32;;;;;;;14.35;3.25;;;;;;;8.14;100.00;102142.97;5076594;28;20454;-33
2022/11/10 07:08:09;;;;;;;15.65;3.63;;;;;;;8.06;100.00;102134.13;5075118;28;20064;-33
2022/11/10 07:10:35;;;;;;;;;;;;;;;8.18;100.00;102148.81;5076723;28;20024;-33
2022/11/10 07:13:01;;;;;;;16.00;3.15;;;;;;;8.13;100.00;102160.16;5077095;28;19999;-33
2022/11/10 07:15:28;;;;;;;17.02;3.42;;;;;;;8.12;100.00;102163.88;5076259;28;20043;-33
2022/11/10 07:17:53;;;;;;;13.75;3.70;;;;;;;8.03;100.00;102146.09;5076253;28;20021;-33
2022/11/10 07:20:19;;;;;;;8.82;3.08;;;;;;;8.15;100.00;102170.75;5076477;28;20035;-33
2022/11/10 07:22:44;;;;;;;14.13;3.13;;;;;;;8.16;100.00;102173.28;5076282;28;20036;-33
2022/11/10 07:25:10;;;;;;;12.95;2.90;;;;;;;8.15;100.00;102182.38;5075855;28;20028;-33
2022/11/10 07:27:35;;;;;;;15.43;3.15;;;;;;;8.18;100.00;102186.56;5076525;28;20035;-34
2022/11/10 07:30:01;;;;;;;14.77;3.08;;;;;;;8.18;100.00;102187.38;5075702;28;20151;-33
2022/11/10 07:32:26;;;;;;;13.07;3.20;;;;;;;8.22;100.00;102199.47;5075955;28;20039;-33
2022/11/10 07:34:52;;;;;;;11.10;3.57;;;;;;;8.26;100.00;102211.56;5075918;28;20035;-33
2022/11/10 07:37:17;;;;;;;11.73;3.13;;;;;;;8.26;100.00;102199.97;5076266;28;20024;-33
2022/11/10 07:39:42;;;;;;;11.83;3.23;;;;;;;8.33;100.00;102195.50;5076059;28;20025;-33
2022/11/10 07:42:07;;;;;;;10.60;2.70;;;;;;;8.36;100.00;102205.97;5075891;28;20063;-33
2022/11/10 07:44:33;;;;;;;13.10;3.03;;;;;;;8.39;100.00;102199.34;5075775;28;20445;-33
2022/11/10 07:46:58;;;;;;;11.73;2.93;;;;;;;8.40;100.00;102198.34;5075726;28;20020;-33
2022/11/10 07:49:24;;;;;;;15.23;3.93;;;;;;;8.40;100.00;102196.50;5075069;28;20461;-34
2022/11/10 07:51:49;;;;;;;14.80;3.27;;;;;;;8.43;100.00;102195.28;5074908;28;20055;-33
2022/11/10 07:54:14;;;;;;;15.13;2.73;;;;;;;8.47;100.00;102196.59;5075542;28;20273;-33
2022/11/10 07:56:41;;;;;;;13.73;3.30;;;;;;;8.49;100.00;102198.09;5074868;28;20055;-33
2022/11/10 07:59:06;;;;;;;8.93;2.60;;;;;;;8.56;100.00;102202.72;5075517;28;20029;-33
2022/11/10 08:01:32;;;;;;;9.00;2.92;;;;;;;8.59;100.00;102205.91;5075208;28;20024;-33
2022/11/10 08:03:58;;;;;;;13.25;3.10;;;;;;;8.70;100.00;102212.69;5075433;28;20487;-33
2022/11/10 08:06:24;;;;;;;13.68;3.28;;;;;;;8.73;100.00;102213.13;5074944;28;20028;-33
2022/11/10 08:08:49;;;;;;;10.10;2.87;;;;;;;8.77;100.00;102224.41;5074074;28;20024;-33
2022/11/10 08:11:14;;;;;;;13.25;3.35;;;;;;;8.80;100.00;102234.00;5073516;28;20050;-34
2022/11/10 08:13:40;;;;;;;13.47;4.03;;;;;;;8.85;100.00;102240.50;5075572;28;20028;-33
2022/11/10 08:16:05;;;;;;;12.40;3.22;;;;;;;8.84;100.00;102238.84;5074951;28;20051;-33
2022/11/10 08:18:31;;;;;;;9.40;2.92;;;;;;;8.92;100.00;102245.97;5074983;28;20028;-33
2022/11/10 08:20:59;;;;;;;17.17;2.90;;;;;;;8.99;100.00;102246.94;5075165;28;20035;-34
2022/11/10 08:23:24;;;;;;;6.90;2.67;;;;;;;9.05;100.00;102248.03;5074669;28;20490;-33
2022/11/10 08:25:52;;;;;;;9.93;3.00;;;;;;;9.08;100.00;102247.66;5074596;28;20107;-34
2022/11/10 08:28:18;;;;;;;11.75;2.80;;;;;;;9.19;100.00;102260.69;5074864;28;20020;-33
2022/11/10 08:30:45;;;;;;;16.35;3.70;;;;;;;9.24;100.00;102251.00;5074447;28;20062;-33
2022/11/10 08:33:12;;;;;;;15.18;3.08;;;;;;;9.28;100.00;102256.88;5074654;28;20055;-33
2022/11/10 08:35:42;;;;;;;11.95;3.33;;;;;;;9.35;100.00;102243.44;5074074;28;20119;-33
2022/11/10 08:38:10;;;;;;;17.25;3.88;;;;;;;9.33;100.00;102240.13;5074555;28;20033;-34
2022/11/10 08:40:36;;;;;;;13.70;4.00;;;;;;;9.43;100.00;102246.88;5074205;28;20039;-34
2022/11/10 08:43:02;;;;;;;11.52;3.13;;;;;;;9.48;100.00;102257.13;5072792;28;20123;-34
2022/11/10 08:45:28;;;;;;;16.52;3.10;;;;;;;9.52;100.00;102256.56;5073823;28;20498;-33
2022/11/10 08:48:06;;;;;;;12.52;3.00;;;;;;;9.65;100.00;102263.94;5074737;28;20058;-34
2022/11/10 08:50:31;;;;;;;11.80;3.33;;;;;;;9.71;100.00;102265.06;5074195;28;20107;-33
2022/11/10 08:53:00;;;;;;;14.63;3.70;;;;;;;9.69;100.00;102253.63;5074484;28;20028;-33
2022/11/10 08:55:25;;;;;;;16.10;4.07;;;;;;;9.81;100.00;102276.41;5074104;28;20270;-33
2022/11/10 08:57:50;;;;;;;13.80;3.17;;;;;;;9.88;100.00;102271.91;5074185;28;20388;-33
2022/11/10 09:00:16;;;;;;;14.43;3.50;;;;;;;9.94;100.00;102264.91;5073856;28;20028;-33
2022/11/10 09:02:42;;;;;;;14.60;3.45;;;;;;;9.98;100.00;102264.31;5074138;28;20021;-34
2022/11/10 09:05:08;;;;;;;17.13;4.00;;;;;;;10.05;100.00;102275.19;5073801;28;20028;-33
2022/11/10 09:07:41;;;;;;;;;;;;;;;10.13;100.00;102285.03;5073972;28;20797;-33
2022/11/10 09:10:06;;;;;;;12.77;3.50;;;;;;;10.16;100.00;102292.78;5073774;28;19948;-33
2022/11/10 09:12:32;;;;;;;15.82;3.33;;;;;;;10.24;100.00;102303.47;5074124;28;20067;-33
2022/11/10 09:14:57;;;;;;;17.63;4.10;;;;;;;10.28;100.00;102297.50;5073655;28;20028;-34
2022/11/10 09:17:22;;;;;;;14.43;3.17;;;;;;;10.37;100.00;102303.63;5073576;28;20319;-34
2022/11/10 09:19:48;;;;;;;11.63;3.23;;;;;;;10.44;100.00;102306.38;5073398;28;20127;-33
2022/11/10 09:22:13;;;;;;;18.27;4.33;;;;;;;10.48;100.00;102300.38;5073623;28;20017;-33
2022/11/10 09:24:38;;;;;;;8.67;3.33;;;;;;;10.54;100.00;102301.47;5071649;28;20040;-34
2022/11/10 09:27:03;;;;;;;16.30;4.00;;;;;;;10.53;100.00;102297.91;5073218;28;20453;-33
2022/11/10 09:29:29;;;;;;;13.93;3.17;;;;;;;10.65;100.00;102308.22;5073409;28;20097;-34
2022/11/10 09:31:54;;;;;;;13.37;4.80;;;;;;;10.69;100.00;102304.09;5073292;28;20078;-33
2022/11/10 09:34:19;;;;;;;10.50;3.13;;;;;;;10.73;100.00;102305.34;5073314;28;20103;-33
2022/11/10 09:36:45;;;;;;;12.73;3.80;;;;;;;10.75;100.00;102298.72;5073201;28;20044;-34
2022/11/10 09:39:10;;;;;;;12.47;3.27;;;;;;;10.78;100.00;102297.50;5073234;28;20047;-34
2022/11/10 09:41:41;;;;;;;13.53;3.37;;;;;;;10.91;100.00;102313.81;5072921;28;20115;-34
2022/11/10 09:44:13;;;;;;;14.82;4.18;;;;;;;10.95;100.00;102317.81;5073559;28;20021;-34
2022/11/10 09:46:47;;;;;;;13.20;3.40;;;;;;;11.00;100.00;102326.19;5073590;28;20122;-33
2022/11/10 09:49:37;;;;;;;18.67;3.92;;;;;;;11.01;100.00;102316.19;5073846;28;20412;-34
2022/11/10 09:52:04;;;;;;;13.52;4.00;;;;;;;11.06;100.00;102308.31;5073593;28;20072;-34
2022/11/10 09:54:44;;;;;;;13.10;3.28;;;;;;;11.16;100.00;102310.66;5073196;28;20037;-33
2022/11/10 09:57:12;;;;;;;12.88;3.10;;;;;;;11.24;100.00;102314.06;5073766;28;20115;-33
2022/11/10 09:59:39;;;;;;;13.50;3.25;;;;;;;11.31;100.00;102305.94;5073219;28;20047;-33
2022/11/10 10:02:16;;;;;;;11.73;3.38;;;;;;;11.37;100.00;102316.00;5072837;28;20035;-34
2022/11/10 10:04:47;;;;;;;12.55;3.20;;;;;;;11.46;100.00;102317.47;5073072;28;20032;-33
2022/11/10 10:07:23;;;;;;;12.48;3.35;;;;;;;11.51;100.00;102319.59;5072652;28;20037;-34
2022/11/10 10:10:00;;;;;;;14.30;3.47;;;;;;;11.56;100.00;102312.53;5089205;28;20050;-34
2022/11/10 10:12:52;;;;;;;16.02;3.80;;;;;;;11.65;100.00;102328.63;5072723;28;20361;-34
2022/11/10 10:15:29;;;;;;;14.82;3.10;;;;;;;11.72;100.00;102326.78;5072767;28;20033;-34
2022/11/10 10:18:12;;;;;;;16.13;3.28;;;;;;;11.83;100.00;102332.47;5072715;28;20035;-34
2022/11/10 10:20:51;;;;;;;10.85;3.40;;;;;;;11.95;100.00;102335.44;5072808;28;20206;-34
2022/11/10 10:23:50;;;;;;;12.45;3.08;;;;;;;12.06;100.00;102347.56;5073378;28;20037;-34
2022/11/10 10:26:20;;;;;;;10.23;3.15;;;;;;;12.09;100.00;102345.28;5061473;28;20465;-33
2022/11/10 10:28:48;;;;;;;13.60;2.90;;;;;;;12.13;100.00;102344.88;5073063;28;20024;-34
2022/11/10 10:31:13;;;;;;;15.50;3.17;;;;;;;12.18;100.00;102350.53;5073409;28;20113;-33
2022/11/10 10:33:39;;;;;;;12.40;3.97;;;;;;;12.22;99.91;102351.78;5077030;28;20460;-33
2022/11/10 10:36:11;;;;;;;13.32;4.03;;;;;;;12.25;99.83;102368.50;5076939;28;20299;-34
2022/11/10 10:38:38;;;;;;;13.23;3.35;;;;;;;12.19;99.75;102352.19;5076286;28;20032;-34
2022/11/10 10:41:40;;;;;;;11.70;3.03;;;;;;;12.40;100.00;102376.44;5076238;28;20029;-33
2022/11/10 10:44:12;;;;;;;13.02;3.45;;;;;;;12.43;98.73;102384.16;5014651;28;20449;-33
2022/11/10 10:46:48;;;;;;;13.07;2.60;;;;;;;12.50;98.01;102395.03;5014396;28;20038;-34
2022/11/10 10:49:27;;;;;;;11.65;2.38;;;;;;;12.53;98.56;102383.75;5014727;28;20080;-34
2022/11/10 10:52:03;;;;;;;12.43;3.35;;;;;;;12.66;98.09;102394.63;5014323;28;20046;-34
2022/11/10 10:54:31;;;;;;;11.80;2.93;;;;;;;12.69;96.49;102388.81;5014391;28;20132;-34
2022/11/10 10:57:04;;;;;;;11.25;2.92;;;;;;;12.74;96.45;102383.59;5014006;28;20363;-34
2022/11/10 10:59:32;;;;;;;11.65;2.80;;;;;;;12.81;96.02;102379.00;5014112;28;20169;-33
2022/11/10 11:01:57;;;;;;;12.13;2.70;;;;;;;12.88;95.65;102378.97;5014148;28;20524;-34
2022/11/10 11:04:33;;;;;;;9.63;2.70;;;;;;;12.98;95.20;102384.84;5014139;28;20077;-34
2022/11/10 11:07:01;;;;;;;12.75;3.05;;;;;;;12.94;94.64;102388.19;5013993;28;20045;-34
2022/11/10 11:09:40;;;;;;;10.82;2.85;;;;;;;12.88;95.83;102370.84;5014375;28;20068;-34
2022/11/10 11:12:16;;;;;;;12.95;2.92;;;;;;;12.87;94.14;102372.72;5013838;28;20409;-34
2022/11/10 11:14:41;;;;;;;11.45;3.10;;;;;;;12.93;95.17;102371.03;4997803;28;20386;-34
2022/11/10 11:17:20;;;;;;;12.73;2.80;;;;;;;13.01;94.33;102376.25;5020723;28;20088;-34
2022/11/10 11:19:46;;;;;;;10.23;2.90;;;;;;;13.07;93.51;102366.44;5075623;28;20043;-34
2022/11/10 11:22:31;;;;;;;13.80;2.75;;;;;;;13.17;93.07;102375.00;5075969;28;20085;-34
2022/11/10 11:25:30;;;;;;;10.30;2.60;;;;;;;13.28;92.80;102365.41;5076388;28;20368;-34
2022/11/10 11:28:14;;;;;;;9.77;2.45;;;;;;;13.21;91.97;102343.66;5075695;28;20021;-34
2022/11/10 11:31:07;;;;;;;16.52;3.50;;;;;;;13.36;92.49;102357.84;5076041;28;20029;-34
2022/11/10 11:33:59;;;;;;;10.57;2.10;;;;;;;13.55;91.86;102390.63;5075499;28;20492;-34
2022/11/10 11:36:52;;;;;;;8.68;2.40;;;;;;;13.61;90.55;102396.03;5075809;28;20056;-34